Greenway, New York
Current Conditions -  °F | °C
As of 11:20 PM on Saturday 25 Oct 2014 (Local Time) from KRME Reporting Station
Thunderstorm Thunderstorm  
Wind Chill: 47°   Ceiling: 9500
Heat Index: 47°   Visibility: 3mi
Dew Point: 46°   Wind: 3mph
Humidity: 97%   Direction: 70°ENE
Pressure: 29.54"   Gusts: NA
Location:  43.2466°N, 75.4624°W
Report Text: KRME 260320Z AUTO 07003KT 3SM VCTS BR FEW044 FEW075 OVC095 08/08 A2954 RMK AO2 LTG DSNT W AND NW RAB08E17 P0000 T00830078
Loading
Personal Weather Stations






























Interactive Weather Map New forecast layout! Learn more

10-Day Weather Forecast

Advertisements
Track Severe Weather on mobile